Time;durP1;ratioP1;P1;durP2;ratioP2;P2;SDS_P1;SDS_P2;PMS_P1;PMS_P2;Temp;Humidity;BMP_temperature;BMP_pressure;BME280_temperature;BME280_humidity;BME280_pressure;Samples;Min_cycle;Max_cycle;Signal;HPM_P1;HPM_P2
2021/10/30 00:01:59;;;;;;;5.00;2.80;;;16.10;90.00;;;;;;5021324;28;20101;-83
2021/10/30 00:04:25;;;;;;;7.45;3.70;;;16.10;90.10;;;;;;5018568;28;20473;-83
2021/10/30 00:06:52;;;;;;;9.40;3.45;;;16.00;90.10;;;;;;5031435;28;20079;-83
2021/10/30 00:09:18;;;;;;;7.35;3.60;;;16.00;90.10;;;;;;5026261;28;20397;-84
2021/10/30 00:11:43;;;;;;;5.95;3.72;;;16.00;90.40;;;;;;5027945;28;20064;-83
2021/10/30 00:14:09;;;;;;;6.63;3.63;;;16.00;90.10;;;;;;5029714;28;20042;-83
2021/10/30 00:16:35;;;;;;;6.63;4.28;;;16.00;90.10;;;;;;5017379;28;20040;-83
2021/10/30 00:19:01;;;;;;;9.27;3.60;;;15.90;90.10;;;;;;5031500;28;20036;-83
2021/10/30 00:21:26;;;;;;;7.13;3.55;;;15.90;90.10;;;;;;5034485;28;20396;-83
2021/10/30 00:23:52;;;;;;;8.90;3.63;;;16.00;90.10;;;;;;5032478;28;20037;-83
2021/10/30 00:26:18;;;;;;;7.72;3.30;;;15.90;90.00;;;;;;5018935;28;20529;-83
2021/10/30 00:28:44;;;;;;;6.47;3.58;;;15.90;90.10;;;;;;5017616;28;20026;-83
2021/10/30 00:31:10;;;;;;;7.60;3.55;;;15.90;90.00;;;;;;5030587;28;20033;-83
2021/10/30 00:33:36;;;;;;;8.00;4.10;;;15.90;90.00;;;;;;5033475;28;20492;-83
2021/10/30 00:36:01;;;;;;;7.07;4.10;;;15.90;90.00;;;;;;5022585;28;20034;-82
2021/10/30 00:38:30;;;;;;;8.98;3.92;;;15.90;90.00;;;;;;5021676;28;20059;-83
2021/10/30 00:40:56;;;;;;;8.40;4.25;;;15.90;90.00;;;;;;5033521;28;20026;-83
2021/10/30 00:43:21;;;;;;;6.05;3.08;;;15.90;90.00;;;;;;5027475;28;20477;-83
2021/10/30 00:45:47;;;;;;;10.38;4.15;;;15.90;89.90;;;;;;5031802;28;20029;-83
2021/10/30 00:48:15;;;;;;;8.07;4.65;;;15.80;89.90;;;;;;5023538;28;20059;-84
2021/10/30 00:50:41;;;;;;;7.05;3.83;;;15.80;89.90;;;;;;5029881;28;20393;-84
2021/10/30 00:53:08;;;;;;;7.43;4.20;;;15.80;89.90;;;;;;5022064;28;20017;-83
2021/10/30 00:55:34;;;;;;;6.63;4.47;;;15.80;89.80;;;;;;5033695;28;20091;-83
2021/10/30 00:58:02;;;;;;;11.18;5.07;;;15.80;89.80;;;;;;5033895;28;20037;-83
2021/10/30 01:00:29;;;;;;;8.68;4.78;;;15.80;89.80;;;;;;5024707;28;20034;-83
2021/10/30 01:02:54;;;;;;;8.98;4.88;;;15.80;89.80;;;;;;5032116;28;20133;-83
2021/10/30 01:05:20;;;;;;;6.05;4.22;;;15.80;89.80;;;;;;5034319;28;20502;-83
2021/10/30 01:07:47;;;;;;;7.85;4.40;;;15.80;89.70;;;;;;5030287;28;20033;-83
2021/10/30 01:10:13;;;;;;;9.13;4.90;;;15.80;89.60;;;;;;5032309;28;20067;-84
2021/10/30 01:12:39;;;;;;;12.65;5.25;;;15.80;89.50;;;;;;5030956;28;20033;-83
2021/10/30 01:15:06;;;;;;;10.77;5.13;;;15.80;89.50;;;;;;5033082;28;20037;-84
2021/10/30 01:17:33;;;;;;;8.90;4.80;;;15.80;89.50;;;;;;5022459;28;20482;-82
2021/10/30 01:19:59;;;;;;;8.48;5.40;;;15.80;89.50;;;;;;5030472;28;20548;-83
2021/10/30 01:22:25;;;;;;;7.72;4.85;;;15.80;89.50;;;;;;5033064;28;20164;-84
2021/10/30 01:24:52;;;;;;;8.85;5.70;;;15.80;89.40;;;;;;5031959;28;20046;-84
2021/10/30 01:27:20;;;;;;;10.70;4.45;;;15.70;89.30;;;;;;5026554;28;20044;-83
2021/10/30 01:29:50;;;;;;;10.20;5.00;;;15.70;89.30;;;;;;5015006;28;20030;-82
2021/10/30 01:32:18;;;;;;;7.65;4.80;;;15.70;89.20;;;;;;5032740;28;20037;-83
2021/10/30 01:34:44;;;;;;;8.63;5.05;;;15.70;89.10;;;;;;5031856;28;20026;-83
2021/10/30 01:37:10;;;;;;;9.73;4.90;;;15.70;89.10;;;;;;5030382;28;20037;-83
2021/10/30 01:39:36;;;;;;;10.13;4.90;;;15.70;89.00;;;;;;5024604;28;20101;-84
2021/10/30 01:42:02;;;;;;;8.60;4.25;;;15.70;89.00;;;;;;5029061;28;20029;-83
2021/10/30 01:44:27;;;;;;;7.72;4.97;;;15.60;88.90;;;;;;5025885;28;20037;-84
2021/10/30 01:46:59;;;;;;;9.10;4.78;;;15.60;88.90;;;;;;5031524;28;20372;-83
2021/10/30 01:49:27;;;;;;;;;;;15.60;89.00;;;;;;5022803;28;20030;-84
2021/10/30 01:51:53;;;;;;;11.50;5.40;;;15.50;88.80;;;;;;5032651;28;20372;-83
2021/10/30 01:54:19;;;;;;;8.73;4.93;;;15.50;88.70;;;;;;5031357;28;20022;-83
2021/10/30 01:56:45;;;;;;;10.00;5.47;;;15.50;88.80;;;;;;5031542;28;20392;-83
2021/10/30 01:59:10;;;;;;;12.00;5.78;;;15.50;89.00;;;;;;5031703;28;20044;-83
2021/10/30 02:01:36;;;;;;;10.25;5.50;;;15.40;88.90;;;;;;5030081;28;20037;-83
2021/10/30 02:04:02;;;;;;;14.05;5.65;;;15.40;89.00;;;;;;5031616;28;20087;-83
2021/10/30 02:06:31;;;;;;;7.93;4.68;;;15.40;89.00;;;;;;5026775;28;20025;-83
2021/10/30 02:08:57;;;;;;;11.43;5.53;;;15.40;89.10;;;;;;5025458;28;20032;-83
2021/10/30 02:11:22;;;;;;;7.47;4.28;;;15.40;89.10;;;;;;5024769;28;20033;-83
2021/10/30 02:13:48;;;;;;;14.10;5.35;;;15.40;89.10;;;;;;5032045;28;20415;-84
2021/10/30 02:16:14;;;;;;;9.13;5.18;;;15.40;89.20;;;;;;5030657;28;20029;-84
2021/10/30 02:18:43;;;;;;;9.23;5.20;;;15.40;89.20;;;;;;5020393;28;20026;-83
2021/10/30 02:21:10;;;;;;;14.07;5.50;;;15.30;89.10;;;;;;5026644;28;20029;-83
2021/10/30 02:23:35;;;;;;;9.15;5.10;;;15.30;89.10;;;;;;5024833;28;20439;-83
2021/10/30 02:26:04;;;;;;;7.82;4.57;;;15.30;89.10;;;;;;5024692;28;20030;-83
2021/10/30 02:28:30;;;;;;;10.68;5.43;;;15.30;89.00;;;;;;5031630;28;20033;-83
2021/10/30 02:30:55;;;;;;;8.27;5.10;;;15.30;88.90;;;;;;5017296;28;20029;-83
2021/10/30 02:33:30;;;;;;;8.10;5.05;;;15.20;88.90;;;;;;5032377;28;20041;-84
2021/10/30 02:35:57;;;;;;;9.23;4.93;;;15.20;88.90;;;;;;5028164;28;20473;-83
2021/10/30 02:38:22;;;;;;;7.78;4.63;;;15.20;88.90;;;;;;5030406;28;20036;-82
2021/10/30 02:40:48;;;;;;;9.88;4.93;;;15.20;88.90;;;;;;5032378;28;20026;-82
2021/10/30 02:43:13;;;;;;;7.25;4.75;;;15.10;89.00;;;;;;5024116;28;20053;-82
2021/10/30 02:45:40;;;;;;;7.03;4.65;;;15.10;89.00;;;;;;5014212;28;20105;-82
2021/10/30 02:48:06;;;;;;;8.50;4.38;;;15.10;89.10;;;;;;5029153;28;20079;-82
2021/10/30 02:50:35;;;;;;;7.47;5.20;;;15.10;89.20;;;;;;5025150;28;20026;-82
2021/10/30 02:53:00;;;;;;;6.97;4.88;;;15.10;89.30;;;;;;5031667;28;20033;-82
2021/10/30 02:55:32;;;;;;;10.38;5.15;;;15.00;89.40;;;;;;5027439;28;20037;-82
2021/10/30 02:57:58;;;;;;;7.43;4.55;;;15.10;89.40;;;;;;5028884;28;20504;-84
2021/10/30 03:00:24;;;;;;;9.70;5.40;;;15.00;89.40;;;;;;5024880;28;20037;-85
2021/10/30 03:02:49;;;;;;;18.60;5.53;;;15.00;89.40;;;;;;5029985;28;20503;-83
2021/10/30 03:05:15;;;;;;;13.07;5.15;;;15.00;89.50;;;;;;5030582;28;20039;-84
2021/10/30 03:07:41;;;;;;;8.80;5.10;;;15.00;89.50;;;;;;5027331;28;20065;-84
2021/10/30 03:10:08;;;;;;;8.15;4.35;;;14.90;89.50;;;;;;5015506;28;20104;-84
2021/10/30 03:12:34;;;;;;;11.27;4.80;;;14.90;89.50;;;;;;5027718;28;20045;-85
2021/10/30 03:15:00;;;;;;;7.45;4.78;;;14.90;89.50;;;;;;5013370;28;20018;-84
2021/10/30 03:17:26;;;;;;;7.53;4.30;;;14.80;89.40;;;;;;5031458;28;20033;-83
2021/10/30 03:19:51;;;;;;;11.38;5.32;;;14.90;89.50;;;;;;5018810;28;20033;-83
2021/10/30 03:22:20;;;;;;;6.65;4.43;;;14.80;89.50;;;;;;5028854;28;20059;-84
2021/10/30 03:24:47;;;;;;;9.98;5.03;;;14.80;89.50;;;;;;5034956;28;20376;-85
2021/10/30 03:27:14;;;;;;;9.07;5.53;;;14.80;89.60;;;;;;5034016;28;20430;-85
2021/10/30 03:29:43;;;;;;;8.02;5.47;;;14.80;89.60;;;;;;5028219;28;20030;-84
2021/10/30 03:32:10;;;;;;;8.70;5.18;;;14.80;89.80;;;;;;5030886;28;20604;-84
2021/10/30 03:34:35;;;;;;;10.43;5.35;;;14.80;89.80;;;;;;5033334;28;20112;-84
2021/10/30 03:37:01;;;;;;;11.23;5.35;;;14.70;89.90;;;;;;5032758;28;20126;-84
2021/10/30 03:39:27;;;;;;;9.18;6.07;;;14.70;90.00;;;;;;5035191;28;20132;-84
2021/10/30 03:41:52;;;;;;;10.00;5.80;;;14.70;90.00;;;;;;5028798;28;20116;-84
2021/10/30 03:44:21;;;;;;;8.02;5.00;;;14.70;90.00;;;;;;5028816;28;20048;-84
2021/10/30 03:46:47;;;;;;;12.35;5.88;;;14.60;90.00;;;;;;5027517;28;20117;-84
2021/10/30 03:49:12;;;;;;;8.55;5.55;;;14.60;90.00;;;;;;5029372;28;20532;-84
2021/10/30 03:51:38;;;;;;;8.43;5.55;;;14.70;90.10;;;;;;5034753;28;20034;-85
2021/10/30 03:54:04;;;;;;;10.20;5.72;;;14.60;90.10;;;;;;5028653;28;20049;-85
2021/10/30 03:56:29;;;;;;;11.90;5.53;;;14.60;90.10;;;;;;5033217;28;20044;-85
2021/10/30 03:58:55;;;;;;;8.27;5.35;;;14.60;90.10;;;;;;5025472;28;20026;-85
2021/10/30 04:01:21;;;;;;;8.82;6.10;;;14.60;90.20;;;;;;5030127;28;20037;-85
2021/10/30 04:03:46;;;;;;;11.13;6.15;;;14.60;90.20;;;;;;5034295;28;20026;-85
2021/10/30 04:06:13;;;;;;;11.85;6.15;;;14.60;90.30;;;;;;5035864;28;20412;-86
2021/10/30 04:08:38;;;;;;;12.73;6.20;;;14.50;90.30;;;;;;5030536;28;20092;-85
2021/10/30 04:11:04;;;;;;;10.02;6.50;;;14.50;90.40;;;;;;5035064;28;20393;-85
2021/10/30 04:13:30;;;;;;;16.15;6.15;;;14.50;90.50;;;;;;5034053;28;20045;-85
2021/10/30 04:15:56;;;;;;;9.38;5.88;;;14.50;90.50;;;;;;5023635;28;20135;-83
2021/10/30 04:18:22;;;;;;;10.40;6.60;;;14.50;90.60;;;;;;5035232;28;20081;-84
2021/10/30 04:20:48;;;;;;;14.82;7.68;;;14.50;90.60;;;;;;5023627;28;20036;-85
2021/10/30 04:23:13;;;;;;;11.00;6.25;;;14.50;90.70;;;;;;5031912;28;20057;-84
2021/10/30 04:25:39;;;;;;;14.73;7.43;;;14.40;90.70;;;;;;5034318;28;20083;-83
2021/10/30 04:28:05;;;;;;;11.75;6.50;;;14.50;90.80;;;;;;5032848;28;20025;-85
2021/10/30 04:30:31;;;;;;;15.43;7.90;;;14.50;90.80;;;;;;5034030;28;20358;-84
2021/10/30 04:32:57;;;;;;;11.07;6.90;;;14.40;90.80;;;;;;5034436;28;20032;-84
2021/10/30 04:35:23;;;;;;;13.98;7.13;;;14.40;90.80;;;;;;5031407;28;20402;-84
2021/10/30 04:37:48;;;;;;;9.90;6.68;;;14.40;90.90;;;;;;5031948;28;20112;-84
2021/10/30 04:40:14;;;;;;;11.05;6.68;;;14.40;91.10;;;;;;5028430;28;20485;-84
2021/10/30 04:42:40;;;;;;;12.80;6.32;;;14.40;90.90;;;;;;5030871;28;20033;-85
2021/10/30 04:45:06;;;;;;;10.07;6.75;;;14.40;90.90;;;;;;5032862;28;20132;-85
2021/10/30 04:47:32;;;;;;;10.25;6.50;;;14.40;90.90;;;;;;5028099;28;20710;-85
2021/10/30 04:49:57;;;;;;;9.93;6.40;;;14.40;90.90;;;;;;5034053;28;20026;-83
2021/10/30 04:52:23;;;;;;;10.90;6.50;;;14.40;90.90;;;;;;5019540;28;20060;-84
2021/10/30 04:54:49;;;;;;;12.73;7.57;;;14.40;90.90;;;;;;5033655;28;20079;-84
2021/10/30 04:57:14;;;;;;;12.05;7.88;;;14.40;90.90;;;;;;5024757;28;20385;-85
2021/10/30 04:59:40;;;;;;;13.25;7.35;;;14.40;90.90;;;;;;5028482;28;20025;-85
2021/10/30 05:02:06;;;;;;;14.07;7.53;;;14.40;91.00;;;;;;5028958;28;20041;-85
2021/10/30 05:04:32;;;;;;;17.25;8.60;;;14.40;91.00;;;;;;5026788;28;20045;-83
2021/10/30 05:06:58;;;;;;;15.93;8.95;;;14.40;91.00;;;;;;5032080;28;20120;-85
2021/10/30 05:09:24;;;;;;;15.38;9.57;;;14.30;91.00;;;;;;5026917;28;20112;-85
2021/10/30 05:11:49;;;;;;;17.73;9.48;;;14.30;91.10;;;;;;5026791;28;20880;-85
2021/10/30 05:14:15;;;;;;;13.30;8.52;;;14.30;91.10;;;;;;5027140;28;20117;-85
2021/10/30 05:16:41;;;;;;;15.13;8.43;;;14.30;91.10;;;;;;5029286;28;20026;-84
2021/10/30 05:19:06;;;;;;;14.52;8.90;;;14.30;91.10;;;;;;5027275;28;20033;-85
2021/10/30 05:21:32;;;;;;;15.98;9.15;;;14.20;91.10;;;;;;5034232;28;20028;-86
2021/10/30 05:23:58;;;;;;;14.35;9.30;;;14.30;91.20;;;;;;5021055;28;21902;-85
2021/10/30 05:26:24;;;;;;;15.60;9.90;;;14.30;91.20;;;;;;5026514;28;20033;-85
2021/10/30 05:28:53;;;;;;;18.30;9.63;;;14.20;91.20;;;;;;5030612;28;20044;-86
2021/10/30 05:31:22;;;;;;;15.70;9.88;;;14.30;91.30;;;;;;5031726;28;20068;-85
2021/10/30 05:33:48;;;;;;;15.55;9.43;;;14.20;91.20;;;;;;5032398;28;20127;-84
2021/10/30 05:36:35;;;;;;;16.70;9.88;;;14.20;91.50;;;;;;5031072;28;20040;-86
2021/10/30 05:39:16;;;;;;;16.98;10.30;;;14.20;91.20;;;;;;5030907;28;20053;-86
2021/10/30 05:41:43;;;;;;;16.85;9.98;;;14.20;91.20;;;;;;5032141;28;20041;-85
2021/10/30 05:44:09;;;;;;;25.10;10.73;;;14.20;91.30;;;;;;5028073;28;20164;-85
2021/10/30 05:46:36;;;;;;;21.40;10.80;;;14.20;91.30;;;;;;5028389;28;20097;-85
2021/10/30 05:49:05;;;;;;;17.98;10.65;;;14.20;91.30;;;;;;5031913;28;20473;-84
2021/10/30 05:51:31;;;;;;;20.63;10.55;;;14.20;91.30;;;;;;5023531;28;20133;-85
2021/10/30 05:53:57;;;;;;;17.30;10.70;;;14.20;91.30;;;;;;5032351;28;20130;-86
2021/10/30 05:56:22;;;;;;;19.00;11.30;;;14.20;91.40;;;;;;5030627;28;20029;-85
2021/10/30 05:58:48;;;;;;;19.40;10.65;;;14.20;91.40;;;;;;5028239;28;20033;-83
2021/10/30 06:01:14;;;;;;;20.60;11.50;;;14.20;91.40;;;;;;5030535;28;20488;-83
2021/10/30 06:03:39;;;;;;;18.85;10.95;;;14.30;91.50;;;;;;5031239;28;20064;-82
2021/10/30 06:06:05;;;;;;;19.88;11.05;;;14.20;91.50;;;;;;5027923;28;20026;-85
2021/10/30 06:08:30;;;;;;;20.23;11.60;;;14.20;91.50;;;;;;5030606;28;20040;-86
2021/10/30 06:10:56;;;;;;;19.30;12.50;;;14.20;91.50;;;;;;5031471;28;20432;-86
2021/10/30 06:13:23;;;;;;;20.10;10.48;;;14.20;91.50;;;;;;5032356;28;20097;-90
2021/10/30 06:15:48;;;;;;;16.13;10.10;;;14.20;91.50;;;;;;5028014;28;20057;-91
2021/10/30 06:18:14;;;;;;;17.65;10.20;;;14.30;91.80;;;;;;5033253;28;20056;-89
2021/10/30 06:20:40;;;;;;;16.40;9.73;;;14.30;91.50;;;;;;5031349;28;20626;-87
2021/10/30 06:23:05;;;;;;;17.17;10.25;;;14.20;91.40;;;;;;5033341;28;20041;-91
2021/10/30 06:25:31;;;;;;;18.13;10.15;;;14.20;91.40;;;;;;5031774;28;20025;-88
2021/10/30 06:27:57;;;;;;;21.88;8.95;;;14.20;91.40;;;;;;5030373;28;20029;-88
2021/10/30 06:30:23;;;;;;;16.40;9.27;;;14.20;91.40;;;;;;5027502;28;20435;-87
2021/10/30 06:32:51;;;;;;;16.42;10.25;;;14.30;91.40;;;;;;5025807;28;20069;-86
2021/10/30 06:35:17;;;;;;;16.52;9.65;;;14.20;91.40;;;;;;5027327;28;20060;-86
2021/10/30 06:37:42;;;;;;;17.40;9.40;;;14.20;91.40;;;;;;5029936;28;20038;-89
2021/10/30 06:40:10;;;;;;;14.63;9.48;;;14.20;91.40;;;;;;5027156;28;20036;-84
2021/10/30 06:42:36;;;;;;;17.65;9.68;;;14.20;91.40;;;;;;5031279;28;20048;-86
2021/10/30 06:45:03;;;;;;;14.10;9.10;;;14.20;91.40;;;;;;5024273;28;20033;-85
2021/10/30 06:47:30;;;;;;;16.15;9.07;;;14.20;91.40;;;;;;5029602;28;20397;-85
2021/10/30 06:49:58;;;;;;;12.63;8.10;;;14.20;91.30;;;;;;5022234;28;20041;-85
2021/10/30 06:52:25;;;;;;;14.57;7.90;;;14.20;91.30;;;;;;5028982;28;20048;-84
2021/10/30 06:54:51;;;;;;;17.00;8.57;;;14.10;91.30;;;;;;5019162;28;20029;-83
2021/10/30 06:57:17;;;;;;;10.23;5.88;;;14.10;91.20;;;;;;5031494;28;20041;-85
2021/10/30 06:59:42;;;;;;;15.10;7.90;;;14.10;91.20;;;;;;5028883;28;20116;-87
2021/10/30 07:02:10;;;;;;;12.93;7.07;;;14.10;91.20;;;;;;5021999;28;20572;-89
2021/10/30 07:04:36;;;;;;;12.75;7.22;;;14.10;91.20;;;;;;5023754;28;20034;-88
2021/10/30 07:07:02;;;;;;;13.63;6.75;;;14.10;91.10;;;;;;5024950;28;20029;-89
2021/10/30 07:09:28;;;;;;;11.10;7.45;;;14.10;91.10;;;;;;5027936;28;20065;-89
2021/10/30 07:11:54;;;;;;;14.20;7.47;;;14.10;91.00;;;;;;5026734;28;20033;-87
2021/10/30 07:14:21;;;;;;;14.70;7.05;;;14.10;91.00;;;;;;5029466;28;20029;-87
2021/10/30 07:16:47;;;;;;;14.57;6.35;;;14.10;91.00;;;;;;5030449;28;20033;-86
2021/10/30 07:19:13;;;;;;;13.57;6.68;;;14.10;91.00;;;;;;5031304;28;20393;-76
2021/10/30 07:21:39;;;;;;;12.85;7.57;;;14.10;91.00;;;;;;5029968;28;20108;-76
2021/10/30 07:24:04;;;;;;;10.77;6.25;;;14.10;91.00;;;;;;5029133;28;20443;-76
2021/10/30 07:26:30;;;;;;;11.10;6.35;;;14.10;90.90;;;;;;5029042;28;20053;-76
2021/10/30 07:28:56;;;;;;;9.77;6.00;;;14.10;90.90;;;;;;5031081;28;20063;-84
2021/10/30 07:31:21;;;;;;;12.18;5.80;;;14.10;90.90;;;;;;5032473;28;20028;-89
2021/10/30 07:33:47;;;;;;;10.40;5.78;;;14.10;90.90;;;;;;5029282;28;20540;-84
2021/10/30 07:36:13;;;;;;;12.85;6.78;;;14.10;90.90;;;;;;5027956;28;20037;-81
2021/10/30 07:38:38;;;;;;;18.40;6.95;;;14.10;90.90;;;;;;5031071;28;20033;-82
2021/10/30 07:41:04;;;;;;;13.35;5.88;;;14.10;90.90;;;;;;5029166;28;20096;-83
2021/10/30 07:43:32;;;;;;;10.98;6.32;;;14.10;90.80;;;;;;5027087;28;20373;-82
2021/10/30 07:45:58;;;;;;;10.20;6.00;;;14.10;91.10;;;;;;5026614;28;20100;-82
2021/10/30 07:48:27;;;;;;;11.73;5.43;;;14.10;90.80;;;;;;5014771;28;20030;-82
2021/10/30 07:50:52;;;;;;;14.52;6.38;;;14.10;90.80;;;;;;5024654;28;20354;-82
2021/10/30 07:53:18;;;;;;;11.50;5.80;;;14.10;91.10;;;;;;5029715;28;20153;-79
2021/10/30 07:55:47;;;;;;;10.23;5.93;;;14.10;90.90;;;;;;5026389;28;20044;-79
2021/10/30 07:58:13;;;;;;;13.15;6.43;;;14.10;90.90;;;;;;5026438;28;20549;-78
2021/10/30 08:00:38;;;;;;;9.90;4.97;;;14.10;90.90;;;;;;5027064;28;20025;-74
2021/10/30 08:03:04;;;;;;;11.80;6.18;;;14.20;91.00;;;;;;5026571;28;20041;-72
2021/10/30 08:05:30;;;;;;;13.00;6.32;;;14.20;91.00;;;;;;5025272;28;20030;-80
2021/10/30 08:07:56;;;;;;;10.57;4.82;;;14.10;91.00;;;;;;5027286;28;20036;-79
2021/10/30 08:10:26;;;;;;;10.23;5.65;;;14.20;91.00;;;;;;5028045;28;20030;-80
2021/10/30 08:12:53;;;;;;;9.15;4.40;;;14.20;91.00;;;;;;5030588;28;20155;-79
2021/10/30 08:15:18;;;;;;;10.48;5.97;;;14.20;91.00;;;;;;5028838;28;20074;-80
2021/10/30 08:17:44;;;;;;;9.25;5.15;;;14.30;91.10;;;;;;5027934;28;20021;-79
2021/10/30 08:20:10;;;;;;;10.60;6.15;;;14.30;91.20;;;;;;5031249;28;20088;-80
2021/10/30 08:22:36;;;;;;;10.90;4.60;;;14.20;91.20;;;;;;5028973;28;20048;-79
2021/10/30 08:25:02;;;;;;;9.73;5.78;;;14.30;91.20;;;;;;5031371;28;20116;-79
2021/10/30 08:27:28;;;;;;;8.90;5.40;;;14.30;91.30;;;;;;5030526;28;20306;-80
2021/10/30 08:29:54;;;;;;;11.73;5.05;;;14.30;91.40;;;;;;5030342;28;20025;-79
2021/10/30 08:32:45;;;;;;;9.05;5.25;;;14.30;91.40;;;;;;5025372;28;20121;-79
2021/10/30 08:35:10;;;;;;;10.07;5.55;;;14.30;91.40;;;;;;5030324;28;20038;-78
2021/10/30 08:37:38;;;;;;;10.70;5.60;;;14.30;91.30;;;;;;5030204;28;20033;-85
2021/10/30 08:40:09;;;;;;;9.15;5.20;;;14.30;91.40;;;;;;5030481;28;20053;-80
2021/10/30 08:42:36;;;;;;;9.15;5.18;;;14.30;91.50;;;;;;5030195;28;20029;-80
2021/10/30 08:45:02;;;;;;;9.70;4.88;;;14.30;91.60;;;;;;5030504;28;20033;-81
2021/10/30 08:47:29;;;;;;;9.63;5.72;;;14.30;91.50;;;;;;5030529;28;20091;-79
2021/10/30 08:49:58;;;;;;;7.47;4.65;;;14.30;91.60;;;;;;5029871;28;20018;-79
2021/10/30 08:52:24;;;;;;;11.35;5.00;;;14.30;91.60;;;;;;5028399;28;20132;-80
2021/10/30 08:54:50;;;;;;;9.50;4.32;;;14.30;91.60;;;;;;5030338;28;20478;-79
2021/10/30 08:57:16;;;;;;;10.05;4.30;;;14.30;91.70;;;;;;5021252;28;20033;-78
2021/10/30 08:59:44;;;;;;;12.93;5.88;;;14.30;91.60;;;;;;5023945;28;20030;-79
2021/10/30 09:02:33;;;;;;;9.57;5.60;;;14.20;91.70;;;;;;5018904;28;20057;-79
2021/10/30 09:05:10;;;;;;;10.93;5.18;;;14.30;91.90;;;;;;5025074;28;21111;-78
2021/10/30 09:07:36;;;;;;;8.68;4.72;;;14.30;91.90;;;;;;5026935;28;20044;-80
2021/10/30 09:10:14;;;;;;;7.43;4.90;;;14.30;92.20;;;;;;5031755;28;20467;-78
2021/10/30 09:12:51;;;;;;;10.32;5.97;;;14.30;92.00;;;;;;5029993;28;20037;-79
2021/10/30 09:15:30;;;;;;;11.30;5.57;;;14.30;92.30;;;;;;5027731;28;20439;-78
2021/10/30 09:17:56;;;;;;;7.18;5.07;;;14.30;92.20;;;;;;5027213;28;20029;-78
2021/10/30 09:20:37;;;;;;;8.48;4.10;;;14.30;92.30;;;;;;5027227;28;20557;-74
2021/10/30 09:23:08;;;;;;;9.88;4.22;;;14.30;92.30;;;;;;5028069;28;20037;-74
2021/10/30 09:25:34;;;;;;;10.25;4.40;;;14.30;92.30;;;;;;5030970;28;20392;-72
2021/10/30 09:28:01;;;;;;;13.55;5.95;;;14.30;92.10;;;;;;5029247;28;20030;-72
2021/10/30 09:30:30;;;;;;;9.13;4.95;;;14.30;92.20;;;;;;5023155;28;20048;-80
2021/10/30 09:33:01;;;;;;;8.95;4.97;;;14.30;92.20;;;;;;5021441;28;20087;-78
2021/10/30 09:35:30;;;;;;;13.13;4.90;;;14.30;92.30;;;;;;5022290;28;20040;-81
2021/10/30 09:37:56;;;;;;;13.40;5.45;;;14.30;92.40;;;;;;5031698;28;20033;-79
2021/10/30 09:40:31;;;;;;;7.70;5.15;;;14.30;92.30;;;;;;5026363;28;20044;-82
2021/10/30 09:43:17;;;;;;;8.15;5.28;;;14.30;92.50;;;;;;5024566;28;20468;-80
2021/10/30 09:45:48;;;;;;;8.10;5.18;;;14.30;92.40;;;;;;5031345;28;20029;-83
2021/10/30 09:48:23;;;;;;;11.00;5.68;;;14.30;92.30;;;;;;5028595;28;20409;-86
2021/10/30 09:50:55;;;;;;;6.85;4.50;;;14.30;92.50;;;;;;5027561;28;20028;-83
2021/10/30 09:53:30;;;;;;;8.95;4.43;;;14.30;92.40;;;;;;5029233;28;20107;-84
2021/10/30 09:56:02;;;;;;;7.88;4.53;;;14.30;92.40;;;;;;5025126;28;20466;-84
2021/10/30 09:58:41;;;;;;;7.45;4.53;;;14.30;92.30;;;;;;5018341;28;20402;-84
2021/10/30 10:01:17;;;;;;;4.63;2.72;;;14.40;92.30;;;;;;5015156;28;20453;-85
2021/10/30 10:03:46;;;;;;;5.07;3.40;;;14.40;92.10;;;;;;5028454;28;20050;-86
2021/10/30 10:06:17;;;;;;;7.50;4.57;;;14.40;92.00;;;;;;5034801;28;20543;-87
2021/10/30 10:08:44;;;;;;;7.53;4.82;;;14.40;92.00;;;;;;5026975;28;20125;-92
2021/10/30 10:11:15;;;;;;;8.00;4.45;;;14.40;92.20;;;;;;5028820;28;20021;-86
2021/10/30 10:13:43;;;;;;;5.43;3.22;;;14.40;92.30;;;;;;5023139;28;20492;-88
2021/10/30 10:16:20;;;;;;;7.78;4.30;;;14.40;91.90;;;;;;5029387;28;20025;-88
2021/10/30 10:18:52;;;;;;;4.22;2.22;;;14.40;92.00;;;;;;5025422;28;20037;-82
2021/10/30 10:21:26;;;;;;;7.13;3.92;;;14.40;91.70;;;;;;5026937;28;20076;-74
2021/10/30 10:23:55;;;;;;;3.30;2.13;;;14.50;91.70;;;;;;5030765;28;20052;-79
2021/10/30 10:26:45;;;;;;;8.93;3.30;;;14.50;91.40;;;;;;5028787;28;20541;-79
2021/10/30 10:29:12;;;;;;;7.18;4.18;;;14.50;91.80;;;;;;5026268;28;20477;-78
2021/10/30 10:31:51;;;;;;;4.72;2.60;;;14.50;91.70;;;;;;5028014;28;20030;-83
2021/10/30 10:34:21;;;;;;;4.20;2.40;;;14.50;91.60;;;;;;5026810;28;20033;-84
2021/10/30 10:36:47;;;;;;;6.15;2.47;;;14.60;91.50;;;;;;5023833;28;20057;-86
2021/10/30 10:39:21;;;;;;;6.60;3.50;;;14.50;91.30;;;;;;5031148;28;20037;-85
2021/10/30 10:41:52;;;;;;;6.93;4.18;;;14.60;91.40;;;;;;5028558;28;20315;-89
2021/10/30 10:44:29;;;;;;;4.88;3.05;;;14.60;91.40;;;;;;5028545;28;20477;-86
2021/10/30 10:46:57;;;;;;;3.90;2.72;;;14.60;91.40;;;;;;5027628;28;20025;-86
2021/10/30 10:52:18;;;;;;;12.40;3.97;;;14.60;91.60;;;;;;5026882;28;20052;-88
2021/10/30 10:54:56;;;;;;;8.93;3.30;;;14.70;91.50;;;;;;5028714;28;20425;-76
2021/10/30 10:57:24;;;;;;;3.70;2.42;;;14.70;91.40;;;;;;5023097;28;20048;-80
2021/10/30 11:00:17;;;;;;;4.43;2.17;;;14.70;91.30;;;;;;5025623;28;20029;-85
2021/10/30 11:02:46;;;;;;;6.07;4.07;;;14.70;91.20;;;;;;5025523;28;20420;-85
2021/10/30 11:05:17;;;;;;;5.00;3.22;;;14.70;91.40;;;;;;5027305;28;20036;-82
2021/10/30 11:07:51;;;;;;;6.30;3.20;;;14.70;91.30;;;;;;5026312;28;20041;-84
2021/10/30 11:10:33;;;;;;;6.45;3.05;;;14.70;91.50;;;;;;5019669;28;20064;-80
2021/10/30 11:13:01;;;;;;;4.88;2.58;;;14.70;91.30;;;;;;5025915;28;20049;-82
2021/10/30 11:15:48;;;;;;;3.22;2.33;;;14.80;91.30;;;;;;5025714;28;20962;-85
2021/10/30 11:21:22;;;;;;;4.35;1.98;;;14.90;91.30;;;;;;5025004;28;20033;-83
2021/10/30 11:23:50;;;;;;;6.88;4.00;;;14.90;91.20;;;;;;5027100;28;20046;-86
2021/10/30 11:26:28;;;;;;;8.35;4.88;;;14.90;91.20;;;;;;5025722;28;20033;-83
2021/10/30 11:29:08;;;;;;;4.18;2.97;;;14.90;91.30;;;;;;5023940;28;20092;-82
2021/10/30 11:31:35;;;;;;;6.30;3.92;;;14.90;91.40;;;;;;5026459;28;20042;-84
2021/10/30 11:34:12;;;;;;;5.30;2.83;;;14.90;91.40;;;;;;5027452;28;20056;-85
2021/10/30 11:36:41;;;;;;;15.55;4.40;;;14.90;91.40;;;;;;5027815;28;20477;-86
2021/10/30 11:39:10;;;;;;;7.95;4.05;;;14.90;91.40;;;;;;5027806;28;20025;-82
2021/10/30 11:41:38;;;;;;;13.15;4.03;;;15.00;91.50;;;;;;5025420;28;20029;-84
2021/10/30 11:44:06;;;;;;;7.38;4.18;;;15.00;91.60;;;;;;5027515;28;20037;-83
2021/10/30 11:46:37;;;;;;;5.65;3.00;;;15.00;91.70;;;;;;5028867;28;20595;-84
2021/10/30 11:49:03;;;;;;;6.93;4.55;;;15.00;91.50;;;;;;5030283;28;20086;-83
2021/10/30 11:51:32;;;;;;;5.63;3.28;;;15.00;91.70;;;;;;5031688;28;20512;-84
2021/10/30 11:53:59;;;;;;;6.05;3.22;;;15.00;91.60;;;;;;5029674;28;20040;-84
2021/10/30 11:56:27;;;;;;;12.95;3.92;;;15.10;91.60;;;;;;5031021;28;20392;-84
2021/10/30 11:58:59;;;;;;;7.15;4.03;;;15.10;91.60;;;;;;5028886;28;20112;-83
2021/10/30 12:01:30;;;;;;;5.80;3.80;;;15.10;91.80;;;;;;5027507;28;20064;-86
2021/10/30 12:04:07;;;;;;;8.98;4.45;;;15.10;91.70;;;;;;5032050;28;20051;-83
2021/10/30 12:06:38;;;;;;;7.03;2.63;;;15.20;91.70;;;;;;5030152;28;20370;-85
2021/10/30 12:09:20;;;;;;;6.70;3.53;;;15.20;91.50;;;;;;5028989;28;20094;-83
2021/10/30 12:11:50;;;;;;;6.55;2.65;;;15.20;91.60;;;;;;5030920;28;20033;-83
2021/10/30 12:14:24;;;;;;;10.02;3.78;;;15.20;91.50;;;;;;5028913;28;20029;-83
2021/10/30 12:16:51;;;;;;;6.35;3.05;;;15.20;91.60;;;;;;5030196;28;20083;-83
2021/10/30 12:19:16;;;;;;;6.13;4.00;;;15.20;91.70;;;;;;5031438;28;20037;-83
2021/10/30 12:21:42;;;;;;;10.23;3.78;;;15.30;91.60;;;;;;5029543;28;20105;-84
2021/10/30 12:24:11;;;;;;;5.35;2.83;;;15.20;91.60;;;;;;5027680;28;20075;-80
2021/10/30 12:26:54;;;;;;;7.82;3.10;;;15.30;91.50;;;;;;5027638;28;20037;-80
2021/10/30 12:29:22;;;;;;;4.80;2.85;;;15.30;91.50;;;;;;5028744;28;20037;-80
2021/10/30 12:32:05;;;;;;;5.03;3.00;;;15.30;91.40;;;;;;5029767;28;20033;-78
2021/10/30 12:34:53;;;;;;;4.10;2.42;;;15.40;91.40;;;;;;5029457;28;20037;-80
2021/10/30 12:37:28;;;;;;;8.02;3.33;;;15.30;91.30;;;;;;5025873;28;20433;-80
2021/10/30 12:40:03;;;;;;;2.70;1.48;;;15.40;91.30;;;;;;5029712;28;20041;-89
2021/10/30 12:42:28;;;;;;;8.63;3.80;;;15.40;91.20;;;;;;5028622;28;20128;-81
2021/10/30 12:44:55;;;;;;;2.47;1.52;;;15.40;91.30;;;;;;5029451;28;20152;-81
2021/10/30 12:47:22;;;;;;;4.65;2.42;;;15.40;91.10;;;;;;5026604;28;20030;-80
2021/10/30 12:50:07;;;;;;;8.20;3.45;;;15.40;91.10;;;;;;5029940;28;20546;-74
2021/10/30 12:52:47;;;;;;;7.05;3.50;;;15.40;91.20;;;;;;5025501;28;20033;-81